SBVT/VIX METAR and TAF weather

Enter ICAO airport designator
Station Type Date Time Source
SBVT METAR 2020/01/27 17:00 UTC NOAA

SBVT 271700Z 05006KT 9000 -RA FEW014 BKN028 OVC100 26/23 Q1012


Station Type Date Time Source
SBVT Decoded METAR 2020/01/27 17:00 UTC NOAA

Vitoria Aeroporto , Brazil (SBVT) 20-16S 040-17W 4M
Jan 27, 2020 - 12:00 PM EST / 2020.01.27 1700 UTC
Wind: from the NE (050 degrees) at 7 MPH (6 KT):0
Visibility: 5 mile(s):0
Sky conditions: overcast
Weather: light rain
Temperature: 78 F (26 C)
Dew Point: 73 F (23 C)
Relative Humidity: 83%
Pressure (altimeter): 29.88 in. Hg (1012 hPa)
ob: SBVT 271700Z 05006KT 9000 -RA FEW014 BKN028 OVC100 26/23 Q1012
cycle: 17

Station Type Date Time Source
SBVT TAF 2020/01/27 18:33 UTC NOAA

TAF SBVT 271600Z 2718/2818 12008KT 9999 SCT025 TN23/2805Z TX28/2814Z
BECMG 2722/2724 36005KT FEW015
BECMG 2805/2807 30005
BECMG 2809/2811 36005KT
BECMG 2815/2817 03010KT SCT030
RMK PEH

Example: see airport list